createdAt,value
2023-03-21T00:04:21.121Z,7.05
2023-03-21T00:09:42.859Z,7.00
2023-03-21T00:15:10.137Z,4.88
2023-03-21T00:20:34.295Z,5.80
2023-03-21T00:25:56.005Z,8.98
2023-03-21T00:31:19.538Z,8.05
2023-03-21T00:36:41.540Z,7.38
2023-03-21T00:42:03.874Z,6.72
2023-03-21T00:47:26.084Z,8.60
2023-03-21T00:52:47.955Z,11.55
2023-03-21T00:58:10.220Z,7.05
2023-03-21T01:03:42.427Z,10.75
2023-03-21T01:09:04.145Z,10.00
2023-03-21T01:14:25.931Z,9.25
2023-03-21T01:19:51.870Z,8.27
2023-03-21T01:25:22.393Z,6.28
2023-03-21T01:30:49.930Z,6.95
2023-03-21T01:36:19.763Z,10.25
2023-03-21T01:41:44.815Z,7.75
2023-03-21T01:47:12.250Z,6.07
2023-03-21T01:52:39.033Z,8.45
2023-03-21T01:58:07.119Z,6.90
2023-03-21T02:03:37.966Z,5.70
2023-03-21T02:09:04.718Z,8.52
2023-03-21T02:14:29.410Z,7.60
2023-03-21T02:20:33.459Z,8.57
2023-03-21T02:26:09.916Z,7.75
2023-03-21T02:31:37.648Z,7.32
2023-03-21T02:37:07.983Z,10.68
2023-03-21T02:42:43.301Z,5.75
2023-03-21T02:48:20.215Z,8.25
2023-03-21T02:54:16.197Z,9.77
2023-03-21T02:59:44.395Z,6.05
2023-03-21T03:05:21.918Z,7.57
2023-03-21T03:11:12.873Z,6.53
2023-03-21T03:17:14.087Z,6.15
2023-03-21T03:22:49.475Z,7.05
2023-03-21T03:28:15.052Z,4.68
2023-03-21T03:33:41.363Z,4.55
2023-03-21T03:39:08.813Z,3.80
2023-03-21T03:44:30.617Z,4.60
2023-03-21T03:50:03.888Z,4.22
2023-03-21T03:55:28.091Z,6.18
2023-03-21T04:00:51.131Z,6.32
2023-03-21T04:06:13.558Z,5.43
2023-03-21T04:11:35.298Z,6.05
2023-03-21T04:16:57.080Z,5.05
2023-03-21T04:22:18.829Z,5.18
2023-03-21T04:27:40.809Z,6.93
2023-03-21T04:33:02.700Z,6.55
2023-03-21T04:38:30.633Z,7.47
2023-03-21T04:43:52.740Z,5.65
2023-03-21T04:49:14.433Z,4.43
2023-03-21T04:54:36.126Z,5.88
2023-03-21T04:59:57.811Z,4.22
2023-03-21T05:05:19.630Z,2.90
2023-03-21T05:10:41.386Z,2.97
2023-03-21T05:16:03.103Z,5.63
2023-03-21T05:21:29.313Z,9.45
2023-03-21T05:26:52.199Z,5.07
2023-03-21T05:32:13.924Z,4.50
2023-03-21T05:37:36.004Z,3.53
2023-03-21T05:42:57.723Z,6.03
2023-03-21T05:48:19.517Z,6.65
2023-03-21T05:53:41.223Z,3.78
2023-03-21T05:59:02.938Z,4.30
2023-03-21T06:04:24.733Z,3.60
2023-03-21T06:09:46.556Z,3.50
2023-03-21T06:15:08.923Z,4.35
2023-03-21T06:20:30.753Z,6.53
2023-03-21T06:25:52.478Z,5.32
2023-03-21T06:31:17.031Z,6.10
2023-03-21T06:36:38.883Z,4.90
2023-03-21T06:42:01.157Z,5.15
2023-03-21T06:47:22.832Z,5.47
2023-03-21T06:52:44.553Z,7.10
2023-03-21T06:58:06.410Z,8.93
2023-03-21T07:03:28.500Z,4.85
2023-03-21T07:08:50.265Z,3.95
2023-03-21T07:14:12.079Z,6.28
2023-03-21T07:19:33.861Z,6.75
2023-03-21T07:25:04.402Z,4.13
2023-03-21T07:30:27.123Z,8.13
2023-03-21T07:35:53.493Z,10.05
2023-03-21T07:46:37.899Z,9.13
2023-03-21T07:52:02.984Z,14.63
2023-03-21T07:57:27.518Z,9.40
2023-03-21T08:02:57.038Z,11.48
2023-03-21T08:08:20.366Z,6.70
2023-03-21T08:13:42.170Z,9.38
2023-03-21T08:19:04.153Z,10.10
2023-03-21T08:24:27.097Z,6.95
2023-03-21T08:29:48.880Z,6.40
2023-03-21T08:35:13.603Z,8.13
2023-03-21T08:40:35.911Z,8.30
2023-03-21T08:45:57.835Z,9.32
2023-03-21T08:51:20.050Z,6.43
2023-03-21T08:56:41.776Z,8.90
2023-03-21T09:02:04.007Z,4.43
2023-03-21T09:07:27.880Z,4.28
2023-03-21T09:12:52.148Z,7.60
2023-03-21T09:18:15.055Z,4.97
2023-03-21T09:23:37.351Z,3.33
2023-03-21T09:29:00.802Z,2.53
2023-03-21T09:34:22.732Z,1.85
2023-03-21T09:39:45.355Z,1.67
2023-03-21T09:45:20.813Z,1.55
2023-03-21T09:50:43.235Z,2.17
2023-03-21T09:56:06.821Z,4.03
2023-03-21T10:01:32.900Z,2.17
2023-03-21T10:07:02.110Z,4.20
2023-03-21T10:12:25.669Z,1.38
2023-03-21T10:18:01.412Z,1.27
2023-03-21T10:23:28.622Z,2.25
2023-03-21T10:28:53.395Z,1.65
2023-03-21T10:34:24.280Z,3.47
2023-03-21T10:39:49.068Z,2.92
2023-03-21T10:45:18.039Z,1.77
2023-03-21T10:50:41.130Z,2.55
2023-03-21T10:56:09.157Z,1.17
2023-03-21T11:01:37.590Z,2.55
2023-03-21T11:07:09.565Z,2.22
2023-03-21T11:12:40.643Z,2.65
2023-03-21T11:18:15.754Z,2.20
2023-03-21T11:23:43.897Z,3.33
2023-03-21T11:29:27.608Z,1.00
2023-03-21T11:35:02.083Z,2.47
2023-03-21T11:40:32.424Z,3.67
2023-03-21T11:46:14.565Z,3.83
2023-03-21T11:51:54.700Z,3.08
2023-03-21T11:57:53.441Z,3.30
2023-03-21T12:03:45.321Z,5.13
2023-03-21T12:09:17.692Z,4.13
2023-03-21T12:15:02.221Z,3.42
2023-03-21T12:20:35.323Z,5.43
2023-03-21T12:26:03.052Z,3.13
2023-03-21T12:31:46.993Z,4.78
2023-03-21T12:37:19.715Z,3.28
2023-03-21T12:42:50.585Z,4.40
2023-03-21T12:48:30.322Z,6.55
2023-03-21T12:54:08.764Z,5.53
2023-03-21T12:59:42.217Z,4.03
2023-03-21T13:05:28.329Z,4.90
2023-03-21T13:10:50.081Z,3.50
2023-03-21T13:16:14.699Z,6.35
2023-03-21T13:21:39.166Z,3.83
2023-03-21T13:27:08.975Z,2.58
2023-03-21T13:32:34.459Z,2.95
2023-03-21T13:38:12.904Z,2.60
2023-03-21T13:43:53.014Z,3.33
2023-03-21T13:49:26.762Z,4.43
2023-03-21T13:54:53.147Z,8.57
2023-03-21T14:00:27.106Z,2.83
2023-03-21T14:05:50.713Z,2.78
2023-03-21T14:11:18.591Z,3.50
2023-03-21T14:16:41.383Z,3.17
2023-03-21T14:22:05.075Z,4.57
2023-03-21T14:27:31.504Z,6.28
2023-03-21T14:33:07.023Z,8.73
2023-03-21T14:38:34.776Z,7.85
2023-03-21T14:44:14.260Z,4.93
2023-03-21T14:49:37.711Z,5.15
2023-03-21T14:55:11.490Z,5.45
2023-03-21T15:00:36.340Z,8.75
2023-03-21T15:05:59.166Z,5.50
2023-03-21T15:11:29.725Z,5.90
2023-03-21T15:16:52.816Z,7.90
2023-03-21T15:22:37.550Z,6.40
2023-03-21T15:28:00.404Z,4.97
2023-03-21T15:33:25.465Z,3.50
2023-03-21T15:38:48.941Z,4.55
2023-03-21T15:44:14.755Z,2.35
2023-03-21T15:49:41.778Z,7.03
2023-03-21T15:55:21.524Z,7.30
2023-03-21T16:00:49.824Z,6.20
2023-03-21T16:06:12.437Z,3.58
2023-03-21T16:11:40.437Z,4.90
2023-03-21T16:17:22.491Z,4.30
2023-03-21T16:22:44.263Z,4.13
2023-03-21T16:28:14.145Z,5.78
2023-03-21T16:33:35.851Z,5.30
2023-03-21T16:38:58.621Z,5.50
2023-03-21T16:44:20.535Z,3.13
2023-03-21T16:49:42.912Z,4.88
2023-03-21T16:55:04.972Z,7.15
2023-03-21T17:00:29.051Z,8.57
2023-03-21T17:05:50.789Z,4.40
2023-03-21T17:11:16.396Z,6.28
2023-03-21T17:16:43.019Z,4.50
2023-03-21T17:22:05.248Z,6.93
2023-03-21T17:27:27.080Z,11.45
2023-03-21T17:32:50.164Z,5.57
2023-03-21T17:38:16.743Z,4.40
2023-03-21T17:43:38.536Z,5.50
2023-03-21T17:49:00.573Z,7.90
2023-03-21T17:54:22.280Z,6.05
2023-03-21T17:59:44.130Z,9.10
2023-03-21T18:05:06.795Z,8.50
2023-03-21T18:10:28.670Z,8.15
2023-03-21T18:15:50.728Z,6.68
2023-03-21T18:21:19.514Z,7.70
2023-03-21T18:26:43.497Z,6.40
2023-03-21T18:32:07.739Z,10.60
2023-03-21T18:37:35.290Z,10.93
2023-03-21T18:43:49.998Z,10.52
2023-03-21T18:48:39.459Z,8.18
2023-03-21T18:54:01.801Z,8.25
2023-03-21T18:59:23.609Z,6.95
2023-03-21T19:04:45.589Z,13.98
2023-03-21T19:10:19.953Z,10.20
2023-03-21T19:15:42.333Z,10.88
2023-03-21T19:21:05.567Z,10.80
2023-03-21T19:26:27.788Z,11.27
2023-03-21T19:31:51.518Z,8.90
2023-03-21T19:37:13.520Z,12.93
2023-03-21T19:42:36.525Z,6.72
2023-03-21T19:47:58.514Z,6.15
2023-03-21T19:53:20.699Z,10.27
2023-03-21T19:58:42.439Z,6.47
2023-03-21T20:04:05.274Z,9.48
2023-03-21T20:09:52.338Z,7.38
2023-03-21T20:15:17.573Z,8.27
2023-03-21T20:20:42.677Z,9.55
2023-03-21T20:26:13.337Z,11.05
2023-03-21T20:31:35.425Z,9.10
2023-03-21T20:36:58.333Z,14.75
2023-03-21T20:42:20.219Z,8.52
2023-03-21T20:47:43.280Z,7.28
2023-03-21T20:53:07.531Z,8.38
2023-03-21T20:58:57.190Z,9.98
2023-03-21T21:04:19.746Z,8.20
2023-03-21T21:09:42.902Z,9.23
2023-03-21T21:15:08.377Z,7.93
2023-03-21T21:20:33.304Z,7.68
2023-03-21T21:25:55.232Z,8.15
2023-03-21T21:31:18.484Z,8.82
2023-03-21T21:36:40.327Z,7.63
2023-03-21T21:42:02.529Z,7.50
2023-03-21T21:47:24.263Z,5.72
2023-03-21T21:52:52.558Z,14.15
2023-03-21T21:58:21.268Z,16.10
2023-03-21T22:03:45.759Z,7.03
2023-03-21T22:09:07.786Z,8.05
2023-03-21T22:14:29.671Z,6.97
2023-03-21T22:20:04.703Z,7.82
2023-03-21T22:25:27.413Z,8.40
2023-03-21T22:30:49.213Z,8.90
2023-03-21T22:36:11.588Z,10.13
2023-03-21T22:41:33.402Z,9.25
2023-03-21T22:46:55.380Z,10.63
2023-03-21T22:52:17.109Z,8.25
2023-03-21T22:57:38.962Z,6.85
2023-03-21T23:03:01.008Z,6.18
2023-03-21T23:08:23.582Z,6.35
2023-03-21T23:13:46.781Z,8.23
2023-03-21T23:19:10.437Z,7.20
2023-03-21T23:24:32.295Z,7.38
2023-03-21T23:29:54.249Z,5.78
2023-03-21T23:35:16.238Z,5.78
2023-03-21T23:40:41.439Z,5.95
2023-03-21T23:46:04.074Z,7.18
2023-03-21T23:51:25.972Z,5.05
2023-03-21T23:56:47.660Z,4.97
